Time;durP1;ratioP1;P1;durP2;ratioP2;P2;SDS_P1;SDS_P2;PMS_P1;PMS_P2;Temp;Humidity;BMP_temperature;BMP_pressure;BME280_temperature;BME280_humidity;BME280_pressure;Samples;Min_cycle;Max_cycle;Signal;HPM_P1;HPM_P2
2023/03/06 00:02:22;;;;;;;14.27;8.77;;;2.80;99.90;;;;;;5073875;28;20648;-48
2023/03/06 00:04:47;;;;;;;14.77;8.60;;;2.90;99.90;;;;;;5055587;28;20189;-50
2023/03/06 00:07:13;;;;;;;14.33;8.93;;;2.90;99.90;;;;;;5074128;28;20187;-50
2023/03/06 00:09:38;;;;;;;15.67;10.10;;;2.90;99.90;;;;;;5074201;28;20175;-49
2023/03/06 00:12:04;;;;;;;12.47;7.23;;;2.90;99.90;;;;;;5073457;28;20182;-50
2023/03/06 00:14:30;;;;;;;15.30;8.80;;;2.90;99.90;;;;;;5073572;28;20290;-49
2023/03/06 00:16:55;;;;;;;13.43;8.70;;;2.90;99.90;;;;;;5073695;28;20164;-51
2023/03/06 00:19:22;;;;;;;14.77;8.07;;;2.90;99.90;;;;;;5073611;28;20187;-48
2023/03/06 00:21:48;;;;;;;13.83;9.13;;;2.90;99.90;;;;;;5073317;28;20230;-49
2023/03/06 00:24:13;;;;;;;15.90;9.00;;;2.90;99.90;;;;;;5073181;28;20195;-48
2023/03/06 00:26:40;;;;;;;14.43;9.00;;;2.90;99.90;;;;;;5073548;28;20172;-47
2023/03/06 00:29:09;;;;;;;13.03;7.93;;;2.90;99.90;;;;;;5073406;28;20179;-47
2023/03/06 00:31:34;;;;;;;16.33;9.23;;;2.90;99.90;;;;;;5073105;28;20262;-49
2023/03/06 00:34:01;;;;;;;11.77;8.60;;;2.80;99.90;;;;;;5073906;28;20207;-48
2023/03/06 00:36:26;;;;;;;13.97;8.80;;;2.80;99.90;;;;;;5073556;28;20297;-48
2023/03/06 00:38:52;;;;;;;16.00;10.27;;;2.80;99.90;;;;;;5073081;28;20190;-48
2023/03/06 00:41:17;;;;;;;15.23;9.37;;;2.80;99.90;;;;;;5073191;28;20203;-48
2023/03/06 00:43:43;;;;;;;14.67;8.30;;;2.80;99.90;;;;;;5073164;28;20263;-50
2023/03/06 00:46:09;;;;;;;12.20;7.87;;;2.80;99.90;;;;;;5073419;28;20187;-48
2023/03/06 00:48:34;;;;;;;14.73;8.77;;;2.80;99.90;;;;;;5073671;28;20656;-49
2023/03/06 00:51:00;;;;;;;15.87;9.73;;;2.80;99.90;;;;;;5073198;28;20569;-48
2023/03/06 00:53:25;;;;;;;15.27;9.47;;;2.80;99.90;;;;;;5073173;28;20207;-47
2023/03/06 00:55:52;;;;;;;14.77;9.63;;;2.70;99.90;;;;;;5073133;28;20203;-49
2023/03/06 00:58:18;;;;;;;16.07;10.03;;;2.70;99.90;;;;;;5072949;28;20171;-49
2023/03/06 01:00:44;;;;;;;14.90;9.87;;;2.70;99.90;;;;;;5072976;28;20286;-49
2023/03/06 01:03:09;;;;;;;13.93;9.47;;;2.70;99.90;;;;;;5073445;28;20186;-48
2023/03/06 01:05:36;;;;;;;15.63;10.27;;;2.70;99.90;;;;;;5072866;28;20592;-48
2023/03/06 01:08:03;;;;;;;15.43;9.73;;;2.70;99.90;;;;;;5073259;28;20651;-48
2023/03/06 01:10:28;;;;;;;14.90;9.63;;;2.70;99.90;;;;;;5076538;28;20241;-48
2023/03/06 01:12:54;;;;;;;18.07;9.10;;;2.60;99.90;;;;;;5077149;28;20574;-49
2023/03/06 01:15:20;;;;;;;14.47;9.83;;;2.60;99.90;;;;;;5077026;28;20260;-49
2023/03/06 01:17:46;;;;;;;16.67;9.07;;;2.60;99.90;;;;;;5077120;28;20212;-50
2023/03/06 01:20:14;;;;;;;15.10;8.60;;;2.60;99.90;;;;;;5077094;28;20223;-50
2023/03/06 01:22:40;;;;;;;14.27;9.03;;;2.60;99.90;;;;;;5076703;28;20587;-50
2023/03/06 01:25:06;;;;;;;15.57;9.33;;;2.60;99.90;;;;;;5076717;28;20206;-50
2023/03/06 01:27:31;;;;;;;13.27;9.33;;;2.50;99.90;;;;;;5076642;28;20229;-49
2023/03/06 01:29:57;;;;;;;17.73;9.00;;;2.60;99.90;;;;;;5076752;28;20294;-48
2023/03/06 01:32:22;;;;;;;14.20;9.00;;;2.60;99.90;;;;;;5076934;28;20183;-50
2023/03/06 01:34:48;;;;;;;15.70;9.37;;;2.60;99.90;;;;;;5076429;28;20210;-50
2023/03/06 01:37:14;;;;;;;15.37;9.50;;;2.60;99.90;;;;;;5089288;28;20188;-49
2023/03/06 01:39:39;;;;;;;16.33;9.60;;;2.60;99.90;;;;;;5092226;28;20195;-49
2023/03/06 01:42:05;;;;;;;15.83;9.43;;;2.60;99.90;;;;;;5077045;28;20600;-49
2023/03/06 01:44:31;;;;;;;17.37;10.37;;;2.60;99.90;;;;;;5076518;28;20192;-49
2023/03/06 01:46:56;;;;;;;17.10;10.53;;;2.60;99.90;;;;;;5076871;28;20270;-50
2023/03/06 01:49:30;;;;;;;16.37;10.13;;;2.70;99.90;;;;;;5075949;28;20263;-49
2023/03/06 01:52:10;;;;;;;17.37;10.60;;;2.60;99.90;;;;;;5076527;28;20560;-50
2023/03/06 01:55:04;;;;;;;14.53;9.47;;;2.60;99.90;;;;;;5076052;28;20253;-49
2023/03/06 01:57:33;;;;;;;14.83;9.90;;;2.70;99.90;;;;;;5072502;28;20283;-49
2023/03/06 02:00:19;;;;;;;16.90;10.00;;;2.70;99.90;;;;;;5076055;28;20274;-50
2023/03/06 02:02:51;;;;;;;18.33;10.67;;;2.70;99.90;;;;;;5075962;28;20218;-49
2023/03/06 02:05:16;;;;;;;13.20;7.93;;;2.70;99.90;;;;;;5076174;28;20172;-50
2023/03/06 02:07:44;;;;;;;17.63;10.37;;;2.70;99.90;;;;;;5076137;28;20639;-48
2023/03/06 02:10:11;;;;;;;16.73;11.07;;;2.70;99.90;;;;;;5076060;28;20195;-48
2023/03/06 02:12:41;;;;;;;18.27;11.03;;;2.70;99.90;;;;;;5076664;28;20265;-48
2023/03/06 02:15:06;;;;;;;18.93;10.43;;;2.70;99.90;;;;;;5058225;28;20215;-49
2023/03/06 02:17:34;;;;;;;19.70;11.40;;;2.80;99.90;;;;;;5076123;28;20241;-49
2023/03/06 02:20:02;;;;;;;21.73;11.37;;;2.80;99.90;;;;;;5075964;28;20192;-49
2023/03/06 02:22:38;;;;;;;18.50;12.33;;;2.70;99.90;;;;;;5057647;28;20177;-48
2023/03/06 02:25:31;;;;;;;15.63;10.27;;;2.80;99.90;;;;;;5057422;28;20199;-51
2023/03/06 02:27:57;;;;;;;17.33;9.37;;;2.70;99.90;;;;;;5075800;28;20270;-48
2023/03/06 02:30:24;;;;;;;23.37;11.63;;;2.80;99.90;;;;;;5075240;28;20231;-49
2023/03/06 02:32:49;;;;;;;21.00;11.87;;;2.80;99.90;;;;;;5075195;28;20647;-48
2023/03/06 02:35:26;;;;;;;18.33;11.43;;;2.80;99.90;;;;;;5075538;28;20202;-50
2023/03/06 02:37:52;;;;;;;19.37;11.53;;;2.80;99.90;;;;;;5075431;28;20643;-49
2023/03/06 02:40:20;;;;;;;18.70;11.73;;;2.80;99.90;;;;;;5074941;28;20606;-49
2023/03/06 02:42:55;;;;;;;20.07;11.90;;;2.80;99.90;;;;;;5074910;28;20317;-50
2023/03/06 02:45:28;;;;;;;16.37;10.67;;;2.80;99.90;;;;;;5075181;28;20220;-48
2023/03/06 02:47:54;;;;;;;19.73;11.77;;;2.80;99.90;;;;;;5075174;28;20168;-50
2023/03/06 02:50:20;;;;;;;23.17;13.40;;;2.80;99.90;;;;;;5074838;28;20192;-50
2023/03/06 02:52:45;;;;;;;21.93;13.17;;;2.80;99.90;;;;;;5074781;28;20188;-51
2023/03/06 02:55:11;;;;;;;23.53;13.63;;;2.80;99.90;;;;;;5074675;28;20233;-50
2023/03/06 02:57:36;;;;;;;22.53;13.47;;;2.80;99.90;;;;;;5074608;28;20204;-50
2023/03/06 03:00:02;;;;;;;20.70;12.40;;;2.80;99.90;;;;;;5074464;28;20725;-49
2023/03/06 03:02:28;;;;;;;22.87;13.73;;;2.80;99.90;;;;;;5074541;28;20180;-49
2023/03/06 03:04:54;;;;;;;21.67;12.53;;;2.80;99.90;;;;;;5074546;28;20708;-51
2023/03/06 03:07:19;;;;;;;23.93;13.63;;;2.80;99.90;;;;;;5074750;28;20209;-49
2023/03/06 03:09:45;;;;;;;23.07;14.13;;;2.80;99.90;;;;;;5074662;28;20184;-51
2023/03/06 03:12:11;;;;;;;25.77;15.00;;;2.80;99.90;;;;;;5074639;28;20226;-51
2023/03/06 03:14:36;;;;;;;23.00;14.27;;;2.80;99.90;;;;;;5074211;28;20204;-49
2023/03/06 03:17:02;;;;;;;20.37;12.23;;;2.80;99.90;;;;;;5074152;28;20182;-49
2023/03/06 03:19:28;;;;;;;23.70;14.90;;;2.80;99.90;;;;;;5074704;28;20176;-51
2023/03/06 03:21:53;;;;;;;26.53;15.83;;;2.80;99.90;;;;;;5074318;28;20195;-50
2023/03/06 03:24:19;;;;;;;25.60;15.33;;;2.80;99.90;;;;;;5074345;28;20655;-49
2023/03/06 03:26:44;;;;;;;30.10;15.43;;;2.80;99.90;;;;;;5074336;28;20302;-49
2023/03/06 03:29:10;;;;;;;25.20;14.27;;;2.80;99.90;;;;;;5074909;28;20183;-50
2023/03/06 03:31:36;;;;;;;27.77;14.73;;;2.80;99.90;;;;;;5074596;28;20716;-49
2023/03/06 03:34:02;;;;;;;26.80;14.60;;;2.80;99.90;;;;;;5074368;28;20226;-51
2023/03/06 03:36:28;;;;;;;25.63;15.57;;;2.80;99.90;;;;;;5073872;28;20180;-48
2023/03/06 03:38:54;;;;;;;26.57;14.07;;;2.80;99.90;;;;;;5074136;28;20263;-49
2023/03/06 03:41:20;;;;;;;25.70;14.93;;;2.80;99.90;;;;;;5074006;28;20199;-49
2023/03/06 03:43:45;;;;;;;28.97;15.63;;;2.80;99.90;;;;;;5056276;28;20190;-49
2023/03/06 03:46:11;;;;;;;26.43;16.43;;;2.80;99.90;;;;;;5055804;28;20640;-50
2023/03/06 03:48:36;;;;;;;29.23;16.70;;;2.80;99.90;;;;;;5073724;28;20215;-49
2023/03/06 03:51:10;;;;;;;32.77;16.93;;;2.80;99.90;;;;;;5073617;28;20202;-49
2023/03/06 03:53:36;;;;;;;29.23;17.47;;;2.80;99.90;;;;;;5073847;28;20203;-49
2023/03/06 03:56:02;;;;;;;29.27;17.77;;;2.80;99.90;;;;;;5073751;28;20188;-49
2023/03/06 03:58:28;;;;;;;29.17;18.27;;;2.80;99.90;;;;;;5073865;28;20226;-48
2023/03/06 04:00:54;;;;;;;28.40;16.60;;;2.80;99.90;;;;;;5073518;28;20557;-49
2023/03/06 04:03:19;;;;;;;29.93;16.93;;;2.80;99.90;;;;;;5073663;28;20185;-49
2023/03/06 04:05:45;;;;;;;32.93;16.80;;;2.80;99.90;;;;;;5073592;28;20187;-50
2023/03/06 04:08:11;;;;;;;26.40;16.53;;;2.80;99.90;;;;;;5074012;28;20233;-48
2023/03/06 04:10:38;;;;;;;29.77;16.07;;;2.80;99.90;;;;;;5073278;28;20203;-50
2023/03/06 04:13:04;;;;;;;29.77;17.83;;;2.80;99.90;;;;;;5073689;28;20640;-49
2023/03/06 04:15:30;;;;;;;30.73;16.20;;;2.90;99.90;;;;;;5073216;28;20211;-49
2023/03/06 04:17:56;;;;;;;28.83;17.40;;;2.80;99.90;;;;;;5073273;28;20198;-48
2023/03/06 04:20:22;;;;;;;32.40;17.43;;;2.80;99.90;;;;;;5073256;28;20552;-49
2023/03/06 04:22:48;;;;;;;31.57;18.37;;;2.90;99.90;;;;;;5073648;28;20176;-49
2023/03/06 04:25:13;;;;;;;31.90;17.53;;;2.80;99.90;;;;;;5073393;28;20199;-49
2023/03/06 04:27:39;;;;;;;30.33;17.43;;;2.80;99.90;;;;;;5073723;28;20563;-48
2023/03/06 04:30:06;;;;;;;32.40;17.07;;;2.80;99.90;;;;;;5073674;28;20195;-50
2023/03/06 04:32:32;;;;;;;32.57;18.47;;;2.80;99.90;;;;;;5073772;28;20223;-50
2023/03/06 04:34:58;;;;;;;34.27;18.60;;;2.80;99.90;;;;;;5074278;28;20246;-49
2023/03/06 04:37:24;;;;;;;32.07;18.27;;;2.80;99.90;;;;;;5075137;28;20513;-48
2023/03/06 04:39:50;;;;;;;32.43;17.43;;;2.80;99.90;;;;;;5088443;28;20207;-49
2023/03/06 04:42:16;;;;;;;31.03;18.50;;;2.80;99.90;;;;;;5086602;28;20306;-49
2023/03/06 04:44:43;;;;;;;30.13;16.97;;;2.80;99.90;;;;;;5077800;28;20651;-49
2023/03/06 04:47:09;;;;;;;33.13;19.50;;;2.80;99.90;;;;;;5078253;28;20262;-50
2023/03/06 04:49:34;;;;;;;34.57;18.27;;;2.80;99.90;;;;;;5077571;28;20215;-49
2023/03/06 04:52:00;;;;;;;33.53;19.77;;;2.80;99.90;;;;;;5077926;28;20178;-49
2023/03/06 04:54:26;;;;;;;33.60;18.47;;;2.80;99.90;;;;;;5077355;28;20203;-50
2023/03/06 04:56:51;;;;;;;35.23;18.70;;;2.80;99.90;;;;;;5076991;28;20588;-49
2023/03/06 04:59:17;;;;;;;31.03;17.80;;;2.80;99.90;;;;;;5076877;28;20175;-50
2023/03/06 05:01:43;;;;;;;31.93;18.40;;;2.80;99.90;;;;;;5076813;28;20558;-49
2023/03/06 05:04:08;;;;;;;29.97;18.17;;;2.80;99.90;;;;;;5077079;28;20180;-50
2023/03/06 05:06:34;;;;;;;28.93;15.77;;;2.80;99.90;;;;;;5077084;28;20186;-50
2023/03/06 05:08:59;;;;;;;34.83;17.70;;;2.70;99.90;;;;;;5076769;28;20180;-50
2023/03/06 05:11:25;;;;;;;33.80;18.30;;;2.80;99.90;;;;;;5076863;28;20226;-48
2023/03/06 05:13:51;;;;;;;31.93;17.97;;;2.80;99.90;;;;;;5077130;28;20671;-49
2023/03/06 05:16:16;;;;;;;30.77;17.33;;;2.80;99.90;;;;;;5076870;28;20176;-51
2023/03/06 05:18:42;;;;;;;31.40;17.17;;;2.80;99.90;;;;;;5077447;28;20168;-49
2023/03/06 05:21:08;;;;;;;30.20;17.70;;;2.80;99.90;;;;;;5076537;28;20196;-50
2023/03/06 05:23:35;;;;;;;27.77;15.37;;;2.70;99.90;;;;;;5076514;28;20195;-50
2023/03/06 05:26:06;;;;;;;27.47;16.93;;;2.80;99.90;;;;;;5076694;28;20245;-50
2023/03/06 05:28:31;;;;;;;27.97;17.63;;;2.80;99.90;;;;;;5076719;28;20587;-50
2023/03/06 05:30:57;;;;;;;27.10;14.43;;;2.70;99.90;;;;;;5076539;28;20238;-50
2023/03/06 05:33:23;;;;;;;30.77;16.70;;;2.80;99.90;;;;;;5076417;28;20191;-49
2023/03/06 05:35:49;;;;;;;26.50;15.23;;;2.70;99.90;;;;;;5076385;28;20198;-50
2023/03/06 05:38:15;;;;;;;28.50;16.13;;;2.70;99.90;;;;;;5076748;28;20187;-50
2023/03/06 05:40:43;;;;;;;29.80;16.50;;;2.70;99.90;;;;;;5076053;28;20290;-48
2023/03/06 05:43:10;;;;;;;26.93;15.57;;;2.70;99.90;;;;;;5076180;28;20190;-49
2023/03/06 05:45:36;;;;;;;26.50;15.57;;;2.70;99.90;;;;;;5075998;28;20184;-49
2023/03/06 05:48:02;;;;;;;28.63;16.23;;;2.70;99.90;;;;;;5076345;28;20229;-49
2023/03/06 05:50:28;;;;;;;26.73;16.33;;;2.70;99.90;;;;;;5075922;28;20200;-49
2023/03/06 05:52:54;;;;;;;28.07;16.00;;;2.70;99.90;;;;;;5076216;28;20195;-49
2023/03/06 05:55:20;;;;;;;29.17;15.87;;;2.70;99.90;;;;;;5076250;28;20658;-49
2023/03/06 05:57:46;;;;;;;28.53;16.37;;;2.70;99.90;;;;;;5076579;28;20259;-49
2023/03/06 06:00:13;;;;;;;30.90;17.73;;;2.70;99.90;;;;;;5076802;28;20233;-48
2023/03/06 06:02:40;;;;;;;33.30;18.13;;;2.70;99.90;;;;;;5076129;28;20651;-47
2023/03/06 06:05:06;;;;;;;32.53;16.90;;;2.70;99.90;;;;;;5075828;28;20568;-49
2023/03/06 06:07:31;;;;;;;31.13;18.60;;;2.70;99.90;;;;;;5075925;28;20184;-49
2023/03/06 06:09:57;;;;;;;34.70;19.37;;;2.70;99.90;;;;;;5075630;28;20268;-51
2023/03/06 06:12:23;;;;;;;31.30;16.27;;;2.70;99.90;;;;;;5075578;28;20233;-50
2023/03/06 06:14:49;;;;;;;30.40;16.43;;;2.70;99.90;;;;;;5075354;28;20203;-50
2023/03/06 06:17:15;;;;;;;35.80;19.23;;;2.70;99.90;;;;;;5075734;28;20237;-51
2023/03/06 06:19:41;;;;;;;29.83;16.90;;;2.70;99.90;;;;;;5075351;28;20544;-49
2023/03/06 06:22:07;;;;;;;34.70;18.93;;;2.60;99.90;;;;;;5075943;28;20188;-50
2023/03/06 06:24:32;;;;;;;32.57;18.50;;;2.60;99.90;;;;;;5076442;28;20199;-48
2023/03/06 06:26:59;;;;;;;35.03;19.23;;;2.60;99.90;;;;;;5075378;28;20651;-50
2023/03/06 06:29:26;;;;;;;38.43;18.07;;;2.60;99.90;;;;;;5075218;28;20209;-50
2023/03/06 06:31:52;;;;;;;32.77;17.87;;;2.60;99.90;;;;;;5076050;28;20705;-51
2023/03/06 06:34:18;;;;;;;42.20;20.37;;;2.60;99.90;;;;;;5075349;28;20211;-50
2023/03/06 06:36:44;;;;;;;35.53;20.93;;;2.60;99.90;;;;;;5075099;28;20187;-49
2023/03/06 06:39:13;;;;;;;42.07;20.97;;;2.60;99.90;;;;;;5075168;28;20182;-50
2023/03/06 06:41:39;;;;;;;39.47;21.17;;;2.60;99.90;;;;;;5075193;28;20211;-50
2023/03/06 06:44:06;;;;;;;38.37;21.03;;;2.70;99.90;;;;;;5075081;28;20186;-51
2023/03/06 06:46:33;;;;;;;43.77;20.30;;;2.60;99.90;;;;;;5075120;28;20207;-50
2023/03/06 06:49:01;;;;;;;39.10;20.87;;;2.70;99.90;;;;;;5040460;28;20301;-50
2023/03/06 06:51:28;;;;;;;31.60;16.87;;;2.70;99.90;;;;;;5074932;28;20204;-51
2023/03/06 06:53:55;;;;;;;33.87;19.40;;;2.70;99.90;;;;;;5074674;28;20222;-49
2023/03/06 06:56:21;;;;;;;35.57;19.60;;;2.70;99.90;;;;;;5074740;28;20250;-50
2023/03/06 06:58:46;;;;;;;33.80;18.47;;;2.70;99.90;;;;;;5074638;28;20268;-50
2023/03/06 07:01:12;;;;;;;35.70;19.93;;;2.70;99.90;;;;;;5074847;28;20199;-50
2023/03/06 07:03:39;;;;;;;39.90;21.07;;;2.70;99.90;;;;;;5074598;28;20172;-51
2023/03/06 07:06:05;;;;;;;37.63;21.17;;;2.70;99.90;;;;;;5073954;28;20167;-50
2023/03/06 07:08:31;;;;;;;31.83;17.43;;;2.70;99.90;;;;;;5074429;28;20185;-51
2023/03/06 07:10:57;;;;;;;35.43;19.67;;;2.80;99.90;;;;;;5074366;28;20207;-49
2023/03/06 07:13:23;;;;;;;41.03;20.23;;;2.70;99.90;;;;;;5074216;28;20179;-50
2023/03/06 07:15:49;;;;;;;24.97;14.00;;;2.70;99.90;;;;;;5074370;28;20245;-50
2023/03/06 07:18:14;;;;;;;34.80;19.00;;;2.80;99.90;;;;;;5074662;28;20179;-50
2023/03/06 07:20:40;;;;;;;37.33;20.83;;;2.80;99.90;;;;;;5074365;28;20195;-52
2023/03/06 07:23:11;;;;;;;35.37;19.23;;;2.70;99.90;;;;;;5074117;28;20552;-50
2023/03/06 07:25:37;;;;;;;35.60;19.33;;;2.80;99.90;;;;;;5074482;28;20203;-50
2023/03/06 07:28:03;;;;;;;36.27;20.70;;;2.80;99.90;;;;;;5074167;28;20643;-50
2023/03/06 07:30:28;;;;;;;39.37;21.40;;;2.80;99.90;;;;;;5073929;28;20234;-50
2023/03/06 07:32:56;;;;;;;39.20;20.77;;;2.80;99.90;;;;;;5075217;28;20262;-51
2023/03/06 07:35:23;;;;;;;38.23;20.37;;;2.80;99.90;;;;;;5074277;28;20211;-50
2023/03/06 07:37:49;;;;;;;34.90;17.73;;;2.90;99.90;;;;;;5074078;28;20178;-49
2023/03/06 07:40:16;;;;;;;41.63;21.53;;;2.90;99.90;;;;;;5074683;28;20203;-50
2023/03/06 07:42:42;;;;;;;39.73;19.90;;;2.90;99.90;;;;;;5090618;28;20243;-50
2023/03/06 07:45:11;;;;;;;36.03;18.10;;;2.90;99.90;;;;;;5091300;28;20192;-47
2023/03/06 07:47:36;;;;;;;37.33;20.20;;;2.90;99.90;;;;;;5074645;28;20252;-46
2023/03/06 07:50:04;;;;;;;37.80;20.70;;;2.90;99.90;;;;;;5074718;28;20231;-46
2023/03/06 07:52:29;;;;;;;29.13;14.67;;;3.00;99.90;;;;;;5074295;28;20635;-50
2023/03/06 07:54:55;;;;;;;32.93;16.93;;;3.00;99.90;;;;;;5074239;28;20344;-45
2023/03/06 07:57:21;;;;;;;39.03;20.23;;;3.00;99.90;;;;;;5056146;28;20232;-45
2023/03/06 07:59:46;;;;;;;29.37;16.30;;;3.10;99.90;;;;;;5073542;28;20274;-45
2023/03/06 08:02:12;;;;;;;39.37;19.83;;;3.10;99.90;;;;;;5074018;28;20175;-45
2023/03/06 08:04:38;;;;;;;36.07;17.90;;;3.10;99.90;;;;;;5056010;28;20199;-47
2023/03/06 08:07:03;;;;;;;33.23;15.90;;;3.10;99.90;;;;;;5055764;28;20184;-48
2023/03/06 08:09:29;;;;;;;47.97;23.37;;;3.10;99.90;;;;;;5074341;28;20180;-45
2023/03/06 08:11:55;;;;;;;37.97;19.80;;;3.10;99.90;;;;;;5074684;28;20211;-44
2023/03/06 08:14:21;;;;;;;35.83;18.00;;;3.10;99.90;;;;;;5074078;28;20210;-45
2023/03/06 08:16:48;;;;;;;41.60;21.63;;;3.10;99.90;;;;;;5074166;28;20183;-46
2023/03/06 08:19:14;;;;;;;42.60;23.00;;;3.10;99.90;;;;;;5074061;28;20207;-45
2023/03/06 08:21:40;;;;;;;44.97;19.60;;;3.20;99.90;;;;;;5073335;28;20205;-45
2023/03/06 08:24:06;;;;;;;37.47;21.77;;;3.30;99.90;;;;;;5055416;28;20282;-45
2023/03/06 08:26:32;;;;;;;41.10;22.47;;;3.30;99.90;;;;;;5073271;28;20191;-46
2023/03/06 08:28:59;;;;;;;32.53;17.67;;;3.30;99.90;;;;;;5073508;28;20236;-46
2023/03/06 08:31:35;;;;;;;36.60;19.87;;;3.40;99.90;;;;;;5073447;28;20219;-47
2023/03/06 08:34:03;;;;;;;33.27;18.50;;;3.40;99.90;;;;;;5073094;28;20202;-45
2023/03/06 08:36:29;;;;;;;35.93;19.10;;;3.50;99.90;;;;;;5073147;28;20183;-44
2023/03/06 08:38:55;;;;;;;40.60;20.30;;;3.50;99.90;;;;;;5073117;28;20259;-45
2023/03/06 08:41:21;;;;;;;43.53;23.60;;;3.60;99.90;;;;;;5073257;28;20565;-46
2023/03/06 08:43:48;;;;;;;35.87;18.90;;;3.60;99.90;;;;;;5073333;28;20299;-46
2023/03/06 08:46:13;;;;;;;52.60;22.53;;;3.70;99.90;;;;;;5073352;28;20176;-45
2023/03/06 08:48:39;;;;;;;42.80;22.23;;;3.70;99.90;;;;;;5073031;28;20294;-45
2023/03/06 08:51:08;;;;;;;38.40;21.27;;;3.80;99.90;;;;;;5072900;28;20204;-44
2023/03/06 08:53:33;;;;;;;40.17;23.13;;;3.90;99.90;;;;;;5072934;28;20258;-45
2023/03/06 08:55:59;;;;;;;45.37;22.20;;;4.00;99.90;;;;;;5073044;28;20260;-46
2023/03/06 08:58:25;;;;;;;35.63;17.83;;;4.20;99.90;;;;;;5073082;28;20182;-46
2023/03/06 09:00:50;;;;;;;33.73;17.93;;;4.20;99.90;;;;;;5073017;28;20250;-44
2023/03/06 09:03:16;;;;;;;30.20;18.10;;;4.30;99.90;;;;;;5073318;28;20215;-46
2023/03/06 09:05:42;;;;;;;37.60;19.53;;;4.30;99.90;;;;;;5073034;28;20719;-48
2023/03/06 09:08:08;;;;;;;37.97;19.07;;;4.30;99.90;;;;;;5073219;28;20218;-47
2023/03/06 09:10:33;;;;;;;35.87;20.17;;;4.20;99.90;;;;;;5072916;28;20237;-46
2023/03/06 09:12:59;;;;;;;36.53;20.37;;;4.30;99.90;;;;;;5072765;28;20266;-44
2023/03/06 09:15:25;;;;;;;35.20;18.47;;;4.30;99.90;;;;;;5072679;28;20253;-46
2023/03/06 09:17:50;;;;;;;30.90;17.80;;;4.30;99.90;;;;;;5072823;28;20179;-45
2023/03/06 09:20:17;;;;;;;33.43;18.33;;;4.30;99.90;;;;;;5054856;28;20207;-48
2023/03/06 09:22:44;;;;;;;26.23;14.17;;;4.40;99.90;;;;;;5072716;28;20717;-48
2023/03/06 09:25:12;;;;;;;35.17;19.20;;;4.40;99.90;;;;;;5072608;28;20278;-45
2023/03/06 09:27:38;;;;;;;36.43;16.87;;;4.40;99.90;;;;;;5072950;28;20195;-46
2023/03/06 09:30:05;;;;;;;30.27;18.13;;;4.40;99.90;;;;;;5074920;28;20208;-46
2023/03/06 09:32:31;;;;;;;32.50;18.80;;;4.50;99.90;;;;;;5076443;28;20174;-46
2023/03/06 09:34:56;;;;;;;34.87;19.37;;;4.50;99.90;;;;;;5076527;28;20213;-46
2023/03/06 09:37:22;;;;;;;32.37;19.00;;;4.60;99.90;;;;;;5076271;28;20174;-46
2023/03/06 09:39:47;;;;;;;32.57;19.77;;;4.60;99.90;;;;;;5076376;28;20185;-45
2023/03/06 09:42:17;;;;;;;39.30;19.40;;;4.60;99.90;;;;;;5076957;28;20265;-44
2023/03/06 09:44:46;;;;;;;31.60;19.57;;;4.60;99.90;;;;;;5076552;28;20733;-45
2023/03/06 09:47:37;;;;;;;26.33;14.90;;;4.60;99.90;;;;;;5076394;28;20186;-45
2023/03/06 09:50:12;;;;;;;27.27;15.27;;;4.70;99.90;;;;;;5076345;28;20202;-49
2023/03/06 09:53:15;;;;;;;32.70;17.07;;;4.60;99.90;;;;;;5076277;28;20188;-51
2023/03/06 09:55:44;;;;;;;33.73;14.63;;;4.60;99.90;;;;;;5058937;28;20208;-45
2023/03/06 09:58:16;;;;;;;28.63;17.17;;;4.60;99.90;;;;;;5075843;28;20191;-47
2023/03/06 10:01:12;;;;;;;28.43;18.00;;;4.60;99.90;;;;;;5075998;28;20626;-44
2023/03/06 10:04:01;;;;;;;26.20;13.90;;;4.60;99.90;;;;;;5057832;28;20185;-45
2023/03/06 10:06:33;;;;;;;33.50;17.77;;;4.60;99.90;;;;;;5076306;28;20170;-46
2023/03/06 10:09:28;;;;;;;30.57;18.67;;;4.60;99.90;;;;;;5075857;28;20174;-45
2023/03/06 10:12:06;;;;;;;32.10;15.87;;;4.50;99.90;;;;;;5075491;28;20205;-44
2023/03/06 10:14:47;;;;;;;29.70;17.93;;;4.60;99.90;;;;;;5075670;28;20193;-46
2023/03/06 10:17:19;;;;;;;30.07;16.10;;;4.60;99.90;;;;;;5075510;28;20182;-44
2023/03/06 10:19:48;;;;;;;24.63;14.87;;;4.60;99.90;;;;;;5075336;28;20194;-45
2023/03/06 10:22:32;;;;;;;28.30;16.77;;;4.60;99.90;;;;;;5075634;28;20190;-45
2023/03/06 10:25:16;;;;;;;30.07;18.27;;;4.60;99.90;;;;;;5075278;28;20204;-45
2023/03/06 10:27:49;;;;;;;27.23;15.10;;;4.70;99.90;;;;;;5075306;28;20285;-45
2023/03/06 10:30:33;;;;;;;29.37;17.20;;;4.70;99.90;;;;;;5075773;28;20556;-45
2023/03/06 10:33:27;;;;;;;24.53;14.60;;;4.70;99.90;;;;;;5075478;28;20175;-44
2023/03/06 10:35:55;;;;;;;27.90;15.33;;;4.70;99.90;;;;;;5046867;28;20211;-44
2023/03/06 10:38:42;;;;;;;27.97;16.00;;;4.60;99.90;;;;;;5075133;28;20193;-45
2023/03/06 10:41:20;;;;;;;31.80;18.10;;;4.60;99.90;;;;;;5074221;28;20575;-46
2023/03/06 10:43:58;;;;;;;28.93;14.93;;;4.70;99.90;;;;;;5075364;28;20164;-46
2023/03/06 10:46:36;;;;;;;23.77;13.43;;;4.60;99.90;;;;;;5074875;28;20653;-45
2023/03/06 10:49:22;;;;;;;26.20;15.03;;;4.60;99.90;;;;;;5075119;28;20182;-46
2023/03/06 10:52:09;;;;;;;27.87;15.57;;;4.60;99.90;;;;;;5057305;28;20549;-47
2023/03/06 10:54:37;;;;;;;28.47;15.97;;;4.60;99.90;;;;;;5080297;28;20195;-47
2023/03/06 10:57:26;;;;;;;33.33;18.07;;;4.60;99.90;;;;;;5088061;28;20238;-46
2023/03/06 10:59:59;;;;;;;31.50;15.53;;;4.60;99.90;;;;;;5080117;28;20201;-45
2023/03/06 11:02:30;;;;;;;29.77;16.33;;;4.60;99.90;;;;;;5075079;28;20182;-45
2023/03/06 11:04:59;;;;;;;31.47;17.33;;;4.60;99.90;;;;;;5075368;28;20178;-44
2023/03/06 11:07:27;;;;;;;24.60;14.27;;;4.60;99.90;;;;;;5074753;28;20674;-46
2023/03/06 11:09:56;;;;;;;27.27;16.27;;;4.60;99.90;;;;;;5074758;28;20203;-46
2023/03/06 11:12:24;;;;;;;27.67;16.47;;;4.60;99.90;;;;;;5074414;28;20224;-46
2023/03/06 11:15:20;;;;;;;25.17;15.67;;;4.50;99.90;;;;;;5074431;28;20202;-46
2023/03/06 11:17:48;;;;;;;25.77;14.80;;;4.60;99.90;;;;;;5074706;28;20173;-44
2023/03/06 11:20:13;;;;;;;25.90;15.30;;;4.50;99.90;;;;;;5074210;28;20198;-44
2023/03/06 11:22:40;;;;;;;27.03;16.63;;;4.50;99.90;;;;;;5074315;28;20189;-46
2023/03/06 11:25:10;;;;;;;26.60;14.73;;;4.50;99.90;;;;;;5074239;28;20337;-45
2023/03/06 11:27:41;;;;;;;29.40;16.27;;;4.50;99.90;;;;;;5074206;28;20174;-44
2023/03/06 11:30:21;;;;;;;31.17;16.13;;;4.50;99.90;;;;;;5074322;28;20289;-47
2023/03/06 11:32:54;;;;;;;25.93;15.03;;;4.50;99.90;;;;;;5056156;28;20182;-46
2023/03/06 11:35:23;;;;;;;29.67;16.07;;;4.50;99.90;;;;;;5074267;28;20227;-43
2023/03/06 11:37:58;;;;;;;26.13;16.43;;;4.60;99.90;;;;;;5074214;28;20186;-44
2023/03/06 11:40:35;;;;;;;23.27;14.37;;;4.60;99.90;;;;;;5074664;28;20202;-45
2023/03/06 11:43:23;;;;;;;27.63;16.30;;;4.60;99.90;;;;;;5074239;28;20607;-44
2023/03/06 11:46:14;;;;;;;28.03;17.50;;;4.70;99.90;;;;;;5074396;28;20268;-46
2023/03/06 11:48:51;;;;;;;29.07;15.23;;;4.60;99.90;;;;;;5073873;28;20171;-45
2023/03/06 11:51:23;;;;;;;28.33;15.57;;;4.70;99.90;;;;;;5073755;28;20263;-45
2023/03/06 11:53:48;;;;;;;26.00;16.20;;;4.60;99.90;;;;;;5073518;28;20698;-45
2023/03/06 11:56:33;;;;;;;24.00;15.23;;;4.70;99.90;;;;;;5073666;28;20182;-46
2023/03/06 11:59:46;;;;;;;26.17;14.50;;;4.70;99.90;;;;;;5074228;28;20227;-45
2023/03/06 12:02:41;;;;;;;26.00;13.87;;;4.70;99.90;;;;;;5027789;28;20189;-51
2023/03/06 12:05:48;;;;;;;26.13;14.63;;;4.70;99.90;;;;;;5074050;28;20670;-51
2023/03/06 12:08:28;;;;;;;21.90;13.27;;;4.70;99.90;;;;;;5065264;28;20191;-50
2023/03/06 12:11:07;;;;;;;21.97;14.10;;;4.70;99.90;;;;;;5055683;28;20706;-50
2023/03/06 12:13:32;;;;;;;20.67;11.23;;;4.70;99.90;;;;;;5073847;28;20534;-48
2023/03/06 12:16:25;;;;;;;28.43;14.50;;;4.60;99.90;;;;;;5073627;28;20185;-49
2023/03/06 12:18:56;;;;;;;26.33;14.73;;;4.60;99.90;;;;;;5073660;28;20169;-50
2023/03/06 12:21:40;;;;;;;21.53;14.00;;;4.50;99.90;;;;;;5073593;28;20292;-49
2023/03/06 12:24:32;;;;;;;21.20;13.63;;;4.50;99.90;;;;;;5073215;28;20230;-49
2023/03/06 12:27:21;;;;;;;25.00;13.90;;;4.50;99.90;;;;;;5073601;28;20171;-49
2023/03/06 12:30:08;;;;;;;22.73;13.63;;;4.40;99.90;;;;;;5073747;28;20487;-49
2023/03/06 12:33:06;;;;;;;22.60;12.70;;;4.30;99.90;;;;;;5073361;28;20178;-50
2023/03/06 12:35:50;;;;;;;22.47;12.80;;;4.30;99.90;;;;;;5073244;28;20191;-50
2023/03/06 12:38:30;;;;;;;23.17;12.57;;;4.30;99.90;;;;;;5073497;28;20269;-50
2023/03/06 12:41:20;;;;;;;23.80;13.03;;;4.30;99.90;;;;;;5073096;28;20201;-50
2023/03/06 12:43:54;;;;;;;21.20;11.10;;;4.30;99.90;;;;;;5073183;28;20268;-50
2023/03/06 12:46:22;;;;;;;19.33;12.43;;;4.40;99.90;;;;;;5073813;28;20219;-50
2023/03/06 12:49:37;;;;;;;23.00;13.13;;;4.40;99.90;;;;;;5073378;28;20273;-48
2023/03/06 12:52:09;;;;;;;19.93;12.00;;;4.50;99.90;;;;;;5069922;28;20220;-50